METAR AND TAF INFORMATION
METAR FOR KLEB
KLEB 260353Z AUTO 18003KT 10SM CLR M02/M10 A2995 RMK AO2 SLP153 T10221100
KLEB 260253Z 18008KT 10SM SCT120 M01/M09 A2996 RMK AO2 SLP156 T10111094 50000
KLEB 260153Z 18007KT 10SM CLR M02/M10 A2997 RMK AO2 SLP163 T10171100
KLEB 260532Z 2606/2706 18003KT P6SM BKN120
FM260800 19003KT 4SM -SHSN OVC040
FM261400 24008KT P6SM BKN050

 AIRPORT MAP

 RUNWAY INFORMATION
Runway 07 Runway length 5496 ft Runway width 100 ft
Runway elevation 562 ft Runway displaced threshold 0 ft Runway heading 59
Runway 25 Runway length 5496 ft Runway width 100 ft
Runway elevation 574 ft Runway displaced threshold 0 ft Runway heading 239
Runway 18 Runway length 5200 ft Runway width 100 ft
Runway elevation 563 ft Runway displaced threshold 0 ft Runway heading 168
Runway 36 Runway length 5200 ft Runway width 100 ft
Runway elevation 603 ft Runway displaced threshold 0 ft Runway heading 348

 AIRPORT FREQUENCIES
Type A/D Name BOSTON APP Frequency 134.7 MHZ
Type ASOS Name ASOS Frequency 118.65 MHZ
Type ATIS Name ATIS Frequency 118.65 MHZ
Type CTAF Name CTAF Frequency 125.95 MHZ
Type GND Name GND Frequency 121.6 MHZ
Type RDO Name BANGOR RDO Frequency 122.2 MHZ
Type TWR Name TWR Frequency 125.95 MHZ
Type UNIC Name UNICOM Frequency 122.95 MHZ

 AIRPORT NEAR NAVIGATION AIDS
Type NDB Name White River Frequency 379 KHZ
Type VOR-DME Name Lebanon Frequency 113700 KHZ

-